Oppenheim, New York
Current Conditions -  °F | °C
As of 10:55 PM on Wednesday 28 Jan 2015 (Local Time) from KNY0 Reporting Station
Clear Clear  
Wind Chill: -20°   Ceiling: Unl
Heat Index: -13°   Visibility: 10mi
Dew Point: -22°   Wind: 7mph
Humidity: 51%   Direction: 260°W
Pressure: 30.25"   Gusts: NA
Location:  43.1048°N, 74.7138°W
Report Text: KNY0 290355Z AUTO 26006KT 10SM CLR M13/M22 A3025 RMK AO2 T11341216
Loading
Personal Weather Stations






























Interactive Weather Map New forecast layout! Learn more

10-Day Weather Forecast

Advertisements
Track Severe Weather on mobile